NCAR-RAP Real-Time Weather Data

Output produced by METARs form (20 January 2018  03:38 UTC)
found at http://weather.rap.ucar.edu/surface/
 
KMOT 200254Z 25010KT 10SM CLR 02/M03 A2963 RMK AO2 SLP049 T00171033 53012
KMOT 200154Z 24012KT 10SM CLR 02/M03 A2962 RMK AO2 SLP043 T00221033
 
KMIB 200256Z AUTO 27014KT 10SM CLR 00/M03 A2961 RMK AO2 SLP048 T00011035 52010
KMIB 200156Z AUTO 28010KT 10SM CLR 00/M03 A2960 RMK AO2 SLP044 T00021032
 
KDVL 200256Z AUTO 27012KT 10SM CLR M01/M03 A2962 RMK AO2 SLP060 T10111033 53015 FZRANO
KDVL 200156Z AUTO 27008KT 10SM CLR M01/M03 A2960 RMK AO2 SLP054 T10111028 FZRANO
 
KGFK 200253Z 22010KT 10SM FEW060 FEW150 SCT190 00/M02 A2961 RMK AO2 SLP038 T00001017 53022
KGFK 200153Z 25008KT 10SM FEW040 SCT120 BKN190 01/M01 A2959 RMK AO2 SLP031 T00111011
 
KRDR 200256Z AUTO 26008KT 10SM SCT190 00/M02 A2961 RMK AO2 SLP041 T00021022 52022 $
KRDR 200156Z AUTO 30008KT 10SM BKN190 02/M01 A2959 RMK AO2 SLP034 T00241014 $
 
KCKN 200335Z AUTO 26013KT 10SM CLR 01/M02 A2963 RMK AO2
KCKN 200315Z AUTO 26012KT 10SM CLR 01/M02 A2962 RMK AO2
KCKN 200255Z AUTO 25011KT 10SM CLR 01/M01 A2962 RMK AO2
KCKN 200235Z AUTO 26009KT 10SM CLR 01/M01 A2961 RMK AO2
KCKN 200215Z AUTO 25010KT 10SM CLR 00/M01 A2961 RMK AO2
KCKN 200155Z AUTO 24008KT 10SM CLR 01/M02 A2960 RMK AO2
 
KHCO 200335Z AUTO 21006KT 10SM CLR M04/M05 A2959 RMK AO2
KHCO 200315Z AUTO 21007KT 10SM CLR M05/M06 A2957 RMK AO2
KHCO 200255Z AUTO 21006KT 10SM CLR M05/M06 A2956 RMK AO2
KHCO 200235Z AUTO 22004KT 10SM CLR M04/M05 A2955 RMK AO2
KHCO 200215Z AUTO 22006KT 10SM CLR M04/M06 A2955 RMK AO2
KHCO 200155Z AUTO 22006KT 10SM CLR M04/M06 A2955 RMK AO2